Korcula, Croatia
Current Conditions -  °F | °C
As of 6:00 AM on Sunday 26 Oct 2014 (Local Time) from LQMO Reporting Station
Clear Clear  
Wind Chill: 50°   Ceiling: Unl
Heat Index: 50°   Visibility: 6mi
Dew Point: 37°   Wind: 6mph
Humidity: 62%   Direction: 100°E
Pressure: 30.09"   Gusts: NA
Location:  42.96°N, 17.13°E
Report Text: LQMO 260400Z 10005KT 060V140 CAVOK 10/03 Q1019
Loading
Personal Weather Stations






























Interactive Weather Map
Tropical Storm Tracking
New forecast layout! Learn more

10-Day Weather Forecast

Advertisements
Track Severe Weather on mobile